Time;durP1;ratioP1;P1;durP2;ratioP2;P2;SDS_P1;SDS_P2;PMS_P1;PMS_P2;Temp;Humidity;BMP_temperature;BMP_pressure;BME280_temperature;BME280_humidity;BME280_pressure;Samples;Min_cycle;Max_cycle;Signal;HPM_P1;HPM_P2
2021/12/09 00:01:20;;;;;;;12.50;6.60;;;3.20;79.00;;;;;;5028971;28;20508;-67
2021/12/09 00:03:46;;;;;;;11.77;6.78;;;3.10;78.40;;;;;;5029041;28;20053;-67
2021/12/09 00:06:12;;;;;;;12.82;7.53;;;3.10;78.50;;;;;;5036871;28;20033;-66
2021/12/09 00:08:38;;;;;;;13.02;6.93;;;3.10;78.50;;;;;;5029097;28;20124;-67
2021/12/09 00:11:07;;;;;;;12.15;6.90;;;3.10;78.60;;;;;;5028350;28;20206;-67
2021/12/09 00:13:33;;;;;;;9.07;5.65;;;3.10;78.70;;;;;;5034046;28;20037;-67
2021/12/09 00:15:59;;;;;;;11.60;6.35;;;3.10;78.70;;;;;;5029447;28;21662;-67
2021/12/09 00:18:25;;;;;;;10.90;6.13;;;3.10;78.80;;;;;;5028523;28;20124;-67
2021/12/09 00:20:51;;;;;;;13.07;6.35;;;3.10;79.30;;;;;;5028354;28;20100;-67
2021/12/09 00:23:17;;;;;;;11.60;6.30;;;3.00;78.70;;;;;;5028800;28;20044;-67
2021/12/09 00:25:43;;;;;;;12.13;7.05;;;3.00;78.80;;;;;;5036235;28;20040;-67
2021/12/09 00:28:09;;;;;;;11.00;6.75;;;3.00;78.80;;;;;;5047099;28;20040;-66
2021/12/09 00:30:35;;;;;;;10.52;6.57;;;3.00;78.70;;;;;;5027751;28;20032;-66
2021/12/09 00:33:04;;;;;;;12.10;7.20;;;3.00;78.70;;;;;;5028769;28;20034;-67
2021/12/09 00:35:41;;;;;;;14.75;7.35;;;3.00;78.60;;;;;;5027537;28;20471;-67
2021/12/09 00:38:09;;;;;;;11.55;6.97;;;2.90;78.60;;;;;;5027972;28;20112;-66
2021/12/09 00:40:35;;;;;;;11.88;6.00;;;2.90;78.60;;;;;;5028550;28;20125;-66
2021/12/09 00:43:02;;;;;;;12.38;6.47;;;2.90;78.70;;;;;;5032293;28;20021;-69
2021/12/09 00:45:28;;;;;;;13.25;6.60;;;2.90;78.70;;;;;;5027333;28;20029;-69
2021/12/09 00:47:54;;;;;;;11.57;6.65;;;2.90;78.70;;;;;;5028046;28;20033;-69
2021/12/09 00:50:20;;;;;;;14.63;5.90;;;2.90;78.80;;;;;;5027465;28;20393;-70
2021/12/09 00:52:47;;;;;;;11.43;6.30;;;2.90;78.80;;;;;;5029539;28;20030;-69
2021/12/09 00:55:15;;;;;;;9.52;6.10;;;2.80;78.80;;;;;;5028872;28;20030;-70
2021/12/09 00:57:42;;;;;;;8.73;5.80;;;2.90;78.90;;;;;;5028124;28;20075;-67
2021/12/09 01:00:13;;;;;;;10.73;5.95;;;2.90;78.90;;;;;;5029069;28;20030;-66
2021/12/09 01:02:39;;;;;;;7.65;5.55;;;2.80;78.80;;;;;;5029011;28;20037;-69
2021/12/09 01:05:06;;;;;;;12.55;5.85;;;2.80;78.70;;;;;;5027132;28;20491;-69
2021/12/09 01:07:32;;;;;;;10.38;5.90;;;2.80;78.70;;;;;;5029254;28;20461;-69
2021/12/09 01:09:58;;;;;;;11.43;6.30;;;2.80;78.70;;;;;;5029029;28;20124;-69
2021/12/09 01:12:24;;;;;;;12.68;5.70;;;2.80;78.80;;;;;;5028602;28;20128;-67
2021/12/09 01:14:50;;;;;;;9.77;6.22;;;2.80;78.80;;;;;;5028306;28;20032;-67
2021/12/09 01:17:16;;;;;;;12.75;5.82;;;2.80;78.90;;;;;;5027630;28;20025;-67
2021/12/09 01:19:42;;;;;;;7.93;5.95;;;2.80;79.60;;;;;;5029356;28;20112;-67
2021/12/09 01:22:09;;;;;;;10.05;5.93;;;2.80;79.10;;;;;;5027385;28;20187;-67
2021/12/09 01:24:34;;;;;;;10.57;5.90;;;2.80;79.10;;;;;;5028537;28;20033;-67
2021/12/09 01:27:01;;;;;;;8.95;6.35;;;2.80;79.20;;;;;;5028388;28;20413;-67
2021/12/09 01:29:37;;;;;;;10.63;6.10;;;2.80;79.10;;;;;;5027502;28;20052;-67
2021/12/09 01:32:06;;;;;;;7.00;5.30;;;2.80;79.10;;;;;;5026558;28;20370;-66
2021/12/09 01:34:32;;;;;;;9.52;6.18;;;2.80;79.00;;;;;;5028347;28;20036;-66
2021/12/09 01:36:58;;;;;;;11.75;5.90;;;2.70;78.90;;;;;;5028621;28;20395;-66
2021/12/09 01:39:27;;;;;;;9.18;6.13;;;2.70;78.90;;;;;;5028400;28;20028;-66
2021/12/09 01:41:53;;;;;;;12.20;5.80;;;2.70;78.90;;;;;;5028933;28;20041;-66
2021/12/09 01:44:18;;;;;;;10.55;5.88;;;2.70;78.90;;;;;;5028850;28;20400;-66
2021/12/09 01:46:44;;;;;;;10.32;5.75;;;2.70;78.90;;;;;;5027631;28;20072;-67
2021/12/09 01:49:10;;;;;;;10.75;5.95;;;2.70;78.90;;;;;;5032347;28;20069;-67
2021/12/09 01:51:36;;;;;;;9.85;6.32;;;2.70;79.50;;;;;;5031332;28;20025;-66
2021/12/09 01:54:02;;;;;;;9.40;5.93;;;2.70;79.10;;;;;;5032411;28;20063;-66
2021/12/09 01:56:29;;;;;;;8.70;5.47;;;2.60;79.00;;;;;;5032016;28;20392;-67
2021/12/09 01:59:00;;;;;;;9.85;5.97;;;2.60;79.00;;;;;;5032812;28;20091;-66
2021/12/09 02:01:26;;;;;;;10.90;6.68;;;2.60;79.10;;;;;;5032119;28;20037;-67
2021/12/09 02:03:52;;;;;;;13.63;7.22;;;2.60;79.10;;;;;;5031589;28;20029;-67
2021/12/09 02:06:20;;;;;;;11.18;6.72;;;2.60;79.10;;;;;;5031013;28;20064;-67
2021/12/09 02:08:45;;;;;;;11.13;6.65;;;2.60;79.20;;;;;;5032071;28;20037;-67
2021/12/09 02:11:11;;;;;;;16.40;7.13;;;2.60;79.20;;;;;;5032696;28;20049;-67
2021/12/09 02:13:37;;;;;;;9.88;6.80;;;2.60;79.20;;;;;;5032612;28;20463;-67
2021/12/09 02:16:03;;;;;;;8.60;6.32;;;2.60;79.20;;;;;;5031406;28;20029;-67
2021/12/09 02:18:29;;;;;;;9.15;6.10;;;2.60;79.10;;;;;;5032236;28;20116;-67
2021/12/09 02:21:21;;;;;;;10.07;6.10;;;2.50;79.00;;;;;;5030585;28;20065;-66
2021/12/09 02:23:50;;;;;;;11.38;5.95;;;2.50;79.00;;;;;;5031581;28;20025;-66
2021/12/09 02:26:19;;;;;;;12.02;5.95;;;2.50;79.00;;;;;;5031416;28;20029;-67
2021/12/09 02:28:45;;;;;;;11.48;6.13;;;2.50;79.10;;;;;;5031679;28;20413;-69
2021/12/09 02:31:11;;;;;;;11.23;6.45;;;2.50;79.20;;;;;;5027446;28;20388;-69
2021/12/09 02:33:37;;;;;;;8.60;5.72;;;2.50;79.20;;;;;;5014857;28;20037;-69
2021/12/09 02:36:04;;;;;;;10.52;5.63;;;2.50;79.10;;;;;;5031354;28;20033;-70
2021/12/09 02:38:30;;;;;;;9.23;5.63;;;2.50;79.20;;;;;;5030252;28;20030;-70
2021/12/09 02:40:56;;;;;;;9.20;5.72;;;2.50;79.10;;;;;;5031381;28;20396;-71
2021/12/09 02:43:27;;;;;;;13.68;6.65;;;2.50;79.10;;;;;;5031683;28;20030;-70
2021/12/09 02:45:55;;;;;;;10.02;5.90;;;2.40;79.20;;;;;;5026178;28;20443;-70
2021/12/09 02:48:22;;;;;;;11.02;5.07;;;2.40;79.20;;;;;;5031568;28;20096;-70
2021/12/09 02:50:50;;;;;;;8.98;5.32;;;2.40;79.10;;;;;;5031003;28;20067;-70
2021/12/09 02:53:16;;;;;;;13.35;5.25;;;2.40;79.10;;;;;;5029901;28;20095;-71
2021/12/09 02:55:43;;;;;;;7.75;5.55;;;2.40;79.10;;;;;;5031652;28;20018;-70
2021/12/09 02:58:08;;;;;;;9.10;5.70;;;2.40;79.10;;;;;;5030044;28;20138;-70
2021/12/09 03:00:51;;;;;;;8.55;5.03;;;2.30;79.10;;;;;;5030321;28;20112;-70
2021/12/09 03:03:16;;;;;;;11.02;6.40;;;2.30;79.10;;;;;;5031291;28;20034;-70
2021/12/09 03:05:44;;;;;;;7.60;5.55;;;2.30;79.00;;;;;;5030968;28;20031;-70
2021/12/09 03:08:11;;;;;;;11.95;5.75;;;2.30;79.10;;;;;;5029053;28;20385;-70
2021/12/09 03:10:36;;;;;;;10.00;5.47;;;2.30;79.10;;;;;;5030477;28;20022;-71
2021/12/09 03:13:05;;;;;;;11.02;5.32;;;2.20;79.10;;;;;;5031735;28;20847;-71
2021/12/09 03:15:33;;;;;;;9.48;5.13;;;2.20;79.10;;;;;;5028657;28;20057;-71
2021/12/09 03:17:59;;;;;;;8.02;4.85;;;2.20;79.80;;;;;;5030996;28;20029;-70
2021/12/09 03:20:27;;;;;;;8.77;5.45;;;2.20;79.20;;;;;;5029431;28;20041;-71
2021/12/09 03:22:53;;;;;;;8.85;5.78;;;2.20;79.30;;;;;;5013464;28;20042;-70
2021/12/09 03:25:20;;;;;;;9.45;5.85;;;2.20;79.40;;;;;;5030254;28;20503;-70
2021/12/09 03:27:46;;;;;;;11.13;5.55;;;2.10;79.40;;;;;;5029799;28;20033;-70
2021/12/09 03:30:15;;;;;;;8.50;5.35;;;2.10;79.50;;;;;;5030547;28;20025;-70
2021/12/09 03:32:41;;;;;;;7.85;5.25;;;2.10;79.60;;;;;;5031145;28;20104;-70
2021/12/09 03:35:09;;;;;;;7.75;5.18;;;2.10;79.60;;;;;;5029992;28;20107;-70
2021/12/09 03:37:35;;;;;;;9.57;5.13;;;2.10;79.50;;;;;;5030796;28;20547;-71
2021/12/09 03:40:01;;;;;;;11.50;5.85;;;2.10;79.50;;;;;;5030163;28;20022;-71
2021/12/09 03:42:28;;;;;;;9.32;5.50;;;2.10;79.50;;;;;;5030875;28;20034;-70
2021/12/09 03:44:55;;;;;;;8.70;5.63;;;2.10;79.50;;;;;;5029487;28;20083;-70
2021/12/09 03:47:24;;;;;;;8.68;5.18;;;2.10;79.40;;;;;;5030104;28;20436;-70
2021/12/09 03:49:50;;;;;;;8.63;5.30;;;2.00;79.40;;;;;;5030337;28;20033;-70
2021/12/09 03:52:16;;;;;;;6.30;4.70;;;2.00;79.40;;;;;;5029430;28;20025;-69
2021/12/09 03:54:43;;;;;;;9.43;5.40;;;2.00;79.30;;;;;;5029984;28;20025;-69
2021/12/09 03:57:10;;;;;;;9.45;5.18;;;2.00;79.40;;;;;;5030494;28;20052;-69
2021/12/09 03:59:36;;;;;;;10.05;5.43;;;2.00;79.40;;;;;;5028510;28;20029;-70
2021/12/09 04:02:03;;;;;;;10.15;5.45;;;2.00;79.60;;;;;;5030043;28;20041;-71
2021/12/09 04:04:28;;;;;;;8.23;4.95;;;2.00;79.60;;;;;;5028212;28;20453;-70
2021/12/09 04:06:54;;;;;;;12.40;7.28;;;2.00;79.60;;;;;;5030215;28;20057;-71
2021/12/09 04:09:22;;;;;;;11.55;5.63;;;2.00;79.50;;;;;;5028362;28;20495;-70
2021/12/09 04:11:49;;;;;;;9.27;5.10;;;1.90;79.60;;;;;;5029484;28;20132;-70
2021/12/09 04:14:15;;;;;;;11.18;5.18;;;1.90;79.50;;;;;;5029875;28;20053;-70
2021/12/09 04:16:41;;;;;;;8.50;5.10;;;1.90;79.50;;;;;;5030159;28;20120;-70
2021/12/09 04:19:09;;;;;;;8.45;5.00;;;1.90;79.60;;;;;;5026757;28;20489;-70
2021/12/09 04:21:35;;;;;;;9.82;5.35;;;1.90;79.60;;;;;;5016199;28;20087;-70
2021/12/09 04:24:07;;;;;;;10.52;5.28;;;1.90;79.60;;;;;;5029171;28;20057;-70
2021/12/09 04:26:39;;;;;;;10.65;5.78;;;1.90;79.60;;;;;;5029453;28;20041;-70
2021/12/09 04:29:06;;;;;;;10.25;5.40;;;1.80;79.50;;;;;;5029614;28;20472;-70
2021/12/09 04:31:33;;;;;;;10.30;5.35;;;1.80;79.50;;;;;;5027741;28;20053;-70
2021/12/09 04:33:58;;;;;;;9.23;5.32;;;1.80;79.50;;;;;;5011717;28;20056;-70
2021/12/09 04:36:25;;;;;;;9.32;5.13;;;1.80;79.50;;;;;;5027889;28;20116;-70
2021/12/09 04:38:53;;;;;;;7.78;4.57;;;1.80;79.50;;;;;;5029535;28;20135;-70
2021/12/09 04:41:19;;;;;;;11.10;5.55;;;1.80;79.60;;;;;;5028862;28;20033;-70
2021/12/09 04:43:45;;;;;;;8.82;4.85;;;1.80;79.60;;;;;;5027829;28;20439;-70
2021/12/09 04:46:11;;;;;;;8.85;4.93;;;1.80;79.70;;;;;;5028899;28;20033;-70
2021/12/09 04:48:37;;;;;;;11.05;4.75;;;1.80;79.70;;;;;;5029228;28;20504;-70
2021/12/09 04:51:03;;;;;;;10.63;5.45;;;1.80;79.60;;;;;;5027402;28;20484;-70
2021/12/09 04:53:29;;;;;;;8.52;5.03;;;1.80;79.60;;;;;;5028383;28;20025;-70
2021/12/09 04:55:55;;;;;;;13.02;5.90;;;1.80;79.50;;;;;;5028767;28;20021;-70
2021/12/09 04:58:23;;;;;;;9.70;5.13;;;1.80;79.50;;;;;;5029641;28;20040;-70
2021/12/09 05:00:50;;;;;;;8.43;5.45;;;1.70;79.40;;;;;;5028024;28;20384;-70
2021/12/09 05:03:16;;;;;;;7.43;4.82;;;1.70;79.50;;;;;;5029476;28;20032;-70
2021/12/09 05:05:49;;;;;;;8.75;4.88;;;1.70;79.50;;;;;;5028529;28;20370;-71
2021/12/09 05:08:17;;;;;;;10.50;5.10;;;1.70;79.60;;;;;;5029340;28;20025;-69
2021/12/09 05:10:55;;;;;;;11.52;5.32;;;1.70;79.60;;;;;;5028586;28;20036;-70
2021/12/09 05:13:23;;;;;;;11.80;5.72;;;1.70;79.80;;;;;;5027665;28;20033;-70
2021/12/09 05:15:49;;;;;;;11.82;5.60;;;1.60;79.80;;;;;;5028138;28;20036;-70
2021/12/09 05:18:15;;;;;;;8.68;5.03;;;1.60;80.00;;;;;;5027787;28;20393;-70
2021/12/09 05:20:43;;;;;;;11.15;5.38;;;1.70;80.00;;;;;;5039435;28;20380;-71
2021/12/09 05:23:09;;;;;;;7.22;5.28;;;1.70;79.90;;;;;;5045952;28;20033;-70
2021/12/09 05:25:35;;;;;;;7.78;5.05;;;1.60;79.90;;;;;;5026358;28;20124;-70
2021/12/09 05:28:01;;;;;;;11.85;5.50;;;1.60;79.90;;;;;;5028027;28;20018;-71
2021/12/09 05:30:38;;;;;;;9.73;5.30;;;1.60;80.00;;;;;;5032154;28;20038;-71
2021/12/09 05:33:05;;;;;;;12.57;5.45;;;1.60;80.10;;;;;;5045112;28;20029;-70
2021/12/09 05:35:31;;;;;;;9.70;5.18;;;1.60;80.10;;;;;;5027028;28;20025;-70
2021/12/09 05:37:57;;;;;;;10.27;5.32;;;1.60;80.10;;;;;;5031657;28;20040;-70
2021/12/09 05:40:22;;;;;;;10.63;5.15;;;1.60;80.00;;;;;;5029809;28;20046;-70
2021/12/09 05:42:48;;;;;;;10.80;5.22;;;1.60;80.00;;;;;;5039999;28;20025;-70
2021/12/09 05:45:14;;;;;;;11.00;5.70;;;1.50;80.00;;;;;;5040739;28;20276;-70
2021/12/09 05:47:40;;;;;;;12.07;4.55;;;1.50;80.10;;;;;;5028578;28;20035;-71
2021/12/09 05:50:07;;;;;;;10.60;5.13;;;1.50;80.00;;;;;;5042825;28;20052;-70
2021/12/09 05:52:33;;;;;;;10.63;5.57;;;1.50;80.00;;;;;;5037170;28;20496;-70
2021/12/09 05:54:59;;;;;;;8.68;4.78;;;1.50;79.90;;;;;;5043237;28;20028;-70
2021/12/09 05:57:25;;;;;;;9.18;5.32;;;1.50;79.90;;;;;;5027041;28;20032;-70
2021/12/09 05:59:53;;;;;;;11.60;4.90;;;1.50;79.90;;;;;;5027248;28;20044;-70
2021/12/09 06:02:18;;;;;;;10.25;4.72;;;1.50;80.00;;;;;;5029946;28;20029;-70
2021/12/09 06:04:45;;;;;;;9.50;5.40;;;1.50;80.00;;;;;;5027283;28;20488;-71
2021/12/09 06:07:10;;;;;;;10.10;5.60;;;1.50;79.90;;;;;;5026157;28;20606;-70
2021/12/09 06:09:36;;;;;;;11.13;4.82;;;1.50;79.80;;;;;;5024830;28;20117;-70
2021/12/09 06:12:05;;;;;;;8.80;5.45;;;1.50;79.90;;;;;;5024802;28;20440;-70
2021/12/09 06:14:30;;;;;;;12.48;5.20;;;1.40;79.80;;;;;;5027382;28;20164;-70
2021/12/09 06:16:56;;;;;;;9.85;5.72;;;1.40;79.80;;;;;;5028009;28;20112;-71
2021/12/09 06:19:22;;;;;;;9.30;5.32;;;1.40;80.00;;;;;;5028863;28;20037;-71
2021/12/09 06:21:49;;;;;;;8.73;5.15;;;1.40;80.00;;;;;;5028266;28;20492;-71
2021/12/09 06:24:15;;;;;;;8.13;4.68;;;1.40;80.10;;;;;;5026339;28;20029;-70
2021/12/09 06:26:41;;;;;;;12.70;5.53;;;1.40;80.10;;;;;;5027308;28;20053;-70
2021/12/09 06:29:07;;;;;;;11.50;4.88;;;1.40;80.10;;;;;;5028017;28;20072;-70
2021/12/09 06:31:34;;;;;;;10.70;6.57;;;1.40;80.20;;;;;;5028058;28;20053;-70
2021/12/09 06:34:00;;;;;;;10.98;5.50;;;1.40;80.30;;;;;;5028367;28;20084;-71
2021/12/09 06:36:26;;;;;;;11.20;5.70;;;1.40;80.20;;;;;;5031681;28;20033;-70
2021/12/09 06:38:52;;;;;;;10.65;5.75;;;1.40;80.20;;;;;;5031927;28;20085;-70
2021/12/09 06:41:17;;;;;;;14.45;5.45;;;1.40;80.20;;;;;;5032030;28;20034;-70
2021/12/09 06:43:43;;;;;;;9.82;5.07;;;1.40;80.80;;;;;;5032200;28;20029;-71
2021/12/09 06:46:11;;;;;;;11.73;5.40;;;1.40;80.20;;;;;;5030056;28;20029;-71
2021/12/09 06:48:37;;;;;;;10.50;5.45;;;1.30;80.90;;;;;;5030501;28;20124;-71
2021/12/09 06:51:05;;;;;;;15.95;5.88;;;1.30;80.40;;;;;;5031430;28;20029;-71
2021/12/09 06:53:31;;;;;;;11.95;6.30;;;1.30;80.40;;;;;;5031698;28;20072;-71
2021/12/09 06:55:57;;;;;;;13.18;7.22;;;1.30;80.50;;;;;;5031197;28;20463;-71
2021/12/09 06:58:25;;;;;;;10.43;6.35;;;1.30;80.50;;;;;;5031695;28;20032;-71
2021/12/09 07:00:52;;;;;;;7.20;5.25;;;1.30;80.50;;;;;;5030713;28;20033;-71
2021/12/09 07:03:20;;;;;;;9.57;5.38;;;1.30;80.60;;;;;;5031506;28;20109;-71
2021/12/09 07:05:46;;;;;;;9.48;5.30;;;1.30;80.60;;;;;;5028942;28;20388;-70
2021/12/09 07:08:13;;;;;;;11.82;5.68;;;1.30;80.50;;;;;;5030873;28;20041;-70
2021/12/09 07:10:39;;;;;;;13.30;6.55;;;1.30;80.50;;;;;;5030888;28;20571;-70
2021/12/09 07:13:05;;;;;;;11.07;5.57;;;1.30;80.50;;;;;;5029838;28;20042;-69
2021/12/09 07:15:32;;;;;;;9.30;5.82;;;1.30;80.40;;;;;;5029978;28;20033;-69
2021/12/09 07:17:58;;;;;;;13.48;6.38;;;1.30;80.40;;;;;;5029594;28;20124;-69
2021/12/09 07:20:24;;;;;;;12.55;6.95;;;1.30;80.30;;;;;;5030692;28;20124;-69
2021/12/09 07:22:51;;;;;;;13.05;7.10;;;1.30;80.30;;;;;;5030851;28;20041;-69
2021/12/09 07:25:19;;;;;;;13.95;7.18;;;1.30;80.30;;;;;;5030229;28;20045;-69
2021/12/09 07:27:45;;;;;;;14.32;7.78;;;1.30;80.30;;;;;;5029766;28;20048;-69
2021/12/09 07:30:12;;;;;;;12.70;6.40;;;1.30;80.40;;;;;;5030774;28;20033;-69
2021/12/09 07:32:38;;;;;;;12.75;6.22;;;1.30;80.50;;;;;;5030668;28;20067;-69
2021/12/09 07:35:07;;;;;;;10.55;6.25;;;1.30;80.70;;;;;;5029468;28;20057;-69
2021/12/09 07:37:33;;;;;;;9.90;6.10;;;1.30;80.70;;;;;;5029525;28;20332;-70
2021/12/09 07:39:59;;;;;;;11.60;6.30;;;1.30;80.70;;;;;;5029124;28;20036;-69
2021/12/09 07:42:25;;;;;;;12.18;5.75;;;1.30;80.70;;;;;;5030716;28;20026;-69
2021/12/09 07:44:51;;;;;;;11.15;6.43;;;1.30;80.70;;;;;;5029309;28;20037;-69
2021/12/09 07:47:17;;;;;;;15.60;6.20;;;1.30;80.80;;;;;;5030300;28;20425;-69
2021/12/09 07:49:44;;;;;;;12.63;6.68;;;1.30;80.90;;;;;;5030337;28;20064;-70
2021/12/09 07:52:10;;;;;;;14.68;6.40;;;1.30;81.00;;;;;;5030438;28;20040;-69
2021/12/09 07:54:35;;;;;;;11.60;6.78;;;1.30;81.00;;;;;;5029970;28;20021;-69
2021/12/09 07:57:01;;;;;;;10.73;6.47;;;1.30;81.00;;;;;;5018208;28;20121;-70
2021/12/09 07:59:27;;;;;;;13.63;7.50;;;1.30;81.00;;;;;;5010051;28;20033;-69
2021/12/09 08:01:52;;;;;;;12.75;7.68;;;1.30;81.10;;;;;;5027513;28;20065;-69
2021/12/09 08:04:18;;;;;;;17.08;7.25;;;1.30;81.20;;;;;;5029697;28;20044;-69
2021/12/09 08:06:44;;;;;;;13.27;7.50;;;1.30;81.20;;;;;;5030218;28;20163;-69
2021/12/09 08:09:10;;;;;;;15.27;7.13;;;1.30;81.20;;;;;;5029969;28;20034;-69
2021/12/09 08:11:37;;;;;;;14.68;7.07;;;1.30;81.20;;;;;;5030181;28;20586;-69
2021/12/09 08:14:05;;;;;;;14.18;7.60;;;1.30;81.20;;;;;;5028550;28;20118;-69
2021/12/09 08:16:37;;;;;;;13.10;7.57;;;1.30;81.30;;;;;;5029174;28;20388;-69
2021/12/09 08:19:07;;;;;;;13.88;6.20;;;1.30;81.50;;;;;;5030009;28;20040;-69
2021/12/09 08:21:35;;;;;;;13.48;6.38;;;1.30;81.40;;;;;;5027894;28;20040;-69
2021/12/09 08:24:02;;;;;;;10.80;6.57;;;1.30;81.50;;;;;;5028241;28;20037;-69
2021/12/09 08:26:28;;;;;;;11.45;5.85;;;1.30;81.60;;;;;;5028508;28;20033;-69
2021/12/09 08:28:54;;;;;;;9.93;5.50;;;1.40;81.70;;;;;;5016501;28;20052;-69
2021/12/09 08:31:20;;;;;;;11.30;6.00;;;1.40;81.70;;;;;;5021772;28;20491;-69
2021/12/09 08:33:46;;;;;;;10.60;5.97;;;1.40;81.80;;;;;;5024915;28;20017;-70
2021/12/09 08:36:12;;;;;;;11.55;5.80;;;1.40;81.80;;;;;;5025845;28;20021;-70
2021/12/09 08:38:38;;;;;;;11.30;4.93;;;1.40;81.90;;;;;;5021206;28;20034;-70
2021/12/09 08:41:04;;;;;;;10.82;5.57;;;1.40;81.90;;;;;;5024039;28;20386;-70
2021/12/09 08:43:31;;;;;;;11.25;5.20;;;1.50;82.10;;;;;;5024801;28;20030;-70
2021/12/09 08:45:56;;;;;;;11.13;5.38;;;1.50;82.10;;;;;;5023053;28;20492;-69
2021/12/09 08:48:24;;;;;;;7.88;4.57;;;1.50;82.20;;;;;;5024463;28;20119;-68
2021/12/09 08:50:50;;;;;;;13.68;5.43;;;1.60;82.50;;;;;;5026584;28;20052;-69
2021/12/09 08:53:19;;;;;;;10.48;5.50;;;1.70;83.40;;;;;;5026995;28;20041;-69
2021/12/09 08:55:46;;;;;;;10.93;4.35;;;1.80;84.00;;;;;;5023692;28;20560;-70
2021/12/09 08:58:13;;;;;;;8.68;4.72;;;1.90;84.00;;;;;;5025642;28;20369;-70
2021/12/09 09:00:41;;;;;;;10.10;4.82;;;2.00;84.70;;;;;;5023259;28;20041;-69
2021/12/09 09:03:06;;;;;;;12.80;5.57;;;2.00;84.90;;;;;;5039599;28;20041;-70
2021/12/09 09:05:34;;;;;;;12.63;5.20;;;2.10;85.10;;;;;;5038620;28;20025;-69
2021/12/09 09:08:00;;;;;;;9.50;5.72;;;2.10;85.50;;;;;;5025211;28;20339;-70
2021/12/09 09:10:28;;;;;;;10.23;5.35;;;2.20;85.40;;;;;;5025486;28;20037;-70
2021/12/09 09:12:54;;;;;;;10.70;5.72;;;2.20;85.30;;;;;;5023163;28;20069;-70
2021/12/09 09:15:23;;;;;;;14.65;5.82;;;2.20;86.00;;;;;;5023778;28;20022;-70
2021/12/09 09:17:49;;;;;;;16.13;5.15;;;2.30;86.20;;;;;;5022831;28;20025;-70
2021/12/09 09:20:17;;;;;;;10.32;5.80;;;2.30;86.80;;;;;;5021472;28;20052;-70
2021/12/09 09:22:43;;;;;;;16.92;5.88;;;2.40;86.90;;;;;;5023587;28;20021;-70
2021/12/09 09:25:17;;;;;;;10.77;5.30;;;2.40;87.20;;;;;;5025808;28;20076;-70
2021/12/09 09:27:44;;;;;;;12.35;5.38;;;2.40;87.40;;;;;;5023141;28;20040;-70
2021/12/09 09:30:17;;;;;;;13.80;6.30;;;2.50;87.50;;;;;;5023766;28;20037;-70
2021/12/09 09:32:52;;;;;;;11.65;5.20;;;2.50;88.30;;;;;;5024363;28;20413;-70
2021/12/09 09:35:18;;;;;;;16.45;7.75;;;2.60;88.40;;;;;;5021934;28;20022;-70
2021/12/09 09:37:44;;;;;;;11.57;6.30;;;2.60;88.60;;;;;;5023877;28;20328;-69
2021/12/09 09:40:15;;;;;;;12.10;5.32;;;2.60;88.50;;;;;;5022866;28;20025;-69
2021/12/09 09:45:12;;;;;;;10.75;4.90;;;2.70;89.00;;;;;;5022992;28;20049;-68
2021/12/09 09:47:38;;;;;;;9.80;4.95;;;2.70;88.80;;;;;;5024788;28;20050;-68
2021/12/09 09:50:06;;;;;;;10.70;4.43;;;2.80;88.50;;;;;;5024262;28;20108;-68
2021/12/09 09:52:32;;;;;;;10.38;5.03;;;2.80;88.40;;;;;;5025272;28;20033;-70
2021/12/09 09:55:00;;;;;;;15.27;5.38;;;2.90;88.30;;;;;;5024205;28;20108;-70
2021/12/09 09:57:26;;;;;;;10.13;5.25;;;2.90;88.30;;;;;;5040175;28;20493;-70
2021/12/09 09:59:52;;;;;;;10.98;5.20;;;2.90;88.20;;;;;;5024664;28;20124;-70
2021/12/09 10:02:18;;;;;;;10.18;5.25;;;3.00;88.10;;;;;;5023895;28;20068;-70
2021/12/09 10:04:48;;;;;;;11.05;6.00;;;3.00;88.00;;;;;;5024409;28;20030;-70
2021/12/09 10:07:21;;;;;;;11.02;6.03;;;3.00;88.10;;;;;;5023514;28;20033;-70
2021/12/09 10:09:48;;;;;;;13.38;5.63;;;3.00;88.10;;;;;;5057058;28;20025;-70
2021/12/09 10:12:14;;;;;;;16.05;7.35;;;3.10;88.30;;;;;;5031458;28;20048;-69
2021/12/09 10:14:45;;;;;;;11.55;5.90;;;3.10;88.70;;;;;;5031088;28;20025;-70
2021/12/09 10:17:14;;;;;;;16.40;6.68;;;3.10;88.60;;;;;;5023791;28;20609;-70
2021/12/09 10:19:55;;;;;;;16.58;7.03;;;3.10;88.90;;;;;;5026821;28;20370;-70
2021/12/09 10:22:23;;;;;;;11.90;6.47;;;3.20;89.20;;;;;;5045096;28;20047;-69
2021/12/09 10:24:54;;;;;;;17.45;7.15;;;3.20;89.30;;;;;;5025082;28;20069;-69
2021/12/09 10:27:30;;;;;;;11.75;5.57;;;3.20;89.20;;;;;;5029702;28;20598;-69
2021/12/09 10:30:02;;;;;;;15.10;6.43;;;3.30;89.10;;;;;;5027883;28;20026;-69
2021/12/09 10:32:32;;;;;;;14.75;6.53;;;3.30;89.10;;;;;;5029645;28;20030;-69
2021/12/09 10:35:17;;;;;;;14.02;7.50;;;3.30;89.00;;;;;;5028123;28;20394;-69
2021/12/09 10:37:45;;;;;;;13.73;6.55;;;3.40;89.10;;;;;;5029318;28;20017;-69
2021/12/09 10:40:14;;;;;;;13.05;5.97;;;3.40;89.00;;;;;;5028256;28;20464;-69
2021/12/09 10:42:46;;;;;;;13.02;5.97;;;3.50;89.00;;;;;;5027664;28;20033;-69
2021/12/09 10:45:17;;;;;;;10.23;5.72;;;3.50;88.90;;;;;;5029443;28;20105;-69
2021/12/09 10:47:59;;;;;;;12.95;7.00;;;3.50;88.90;;;;;;5035105;28;20036;-69
2021/12/09 10:53:46;;;;;;;14.25;6.60;;;3.60;89.00;;;;;;5026855;28;20439;-70
2021/12/09 10:56:03;;;;;;;15.10;6.97;;;3.60;89.00;;;;;;5026321;28;20047;-71
2021/12/09 10:58:34;;;;;;;12.13;7.00;;;3.60;88.90;;;;;;5026410;28;20025;-70
2021/12/09 11:01:09;;;;;;;11.90;7.32;;;3.60;88.90;;;;;;5027418;28;20028;-70
2021/12/09 11:03:41;;;;;;;11.60;6.72;;;3.70;88.90;;;;;;5030268;28;20473;-70
2021/12/09 11:06:06;;;;;;;10.73;6.87;;;3.70;88.80;;;;;;5029187;28;20100;-71
2021/12/09 11:08:40;;;;;;;18.80;8.40;;;3.70;88.80;;;;;;5026401;28;20096;-71
2021/12/09 11:11:14;;;;;;;16.73;7.85;;;3.70;89.10;;;;;;5044225;28;20140;-71
2021/12/09 11:13:53;;;;;;;18.38;9.02;;;3.70;89.10;;;;;;5028209;28;20083;-71
2021/12/09 11:16:26;;;;;;;15.75;7.97;;;3.70;89.40;;;;;;5056669;28;20091;-71
2021/12/09 11:18:56;;;;;;;;;;;3.70;89.40;;;;;;5025693;28;20477;-71
2021/12/09 11:21:30;;;;;;;16.50;8.68;;;3.70;89.20;;;;;;5025675;28;19928;-71
2021/12/09 11:24:02;;;;;;;21.17;9.85;;;3.70;89.30;;;;;;5023029;28;20026;-71
2021/12/09 11:26:35;;;;;;;20.42;9.55;;;3.80;89.50;;;;;;5024654;28;20037;-71
2021/12/09 11:29:17;;;;;;;14.95;8.65;;;3.80;89.50;;;;;;5028780;28;20087;-70
2021/12/09 11:32:07;;;;;;;20.20;9.35;;;3.80;89.40;;;;;;5024154;28;20083;-70
2021/12/09 11:34:47;;;;;;;24.50;10.88;;;3.90;89.30;;;;;;5024099;28;20047;-71
2021/12/09 11:37:55;;;;;;;21.27;10.18;;;3.90;89.40;;;;;;5023269;28;20495;-70
2021/12/09 11:40:12;;;;;;;17.80;10.18;;;3.90;89.40;;;;;;5026021;28;20045;-70
2021/12/09 11:42:46;;;;;;;22.38;10.93;;;4.00;89.50;;;;;;5015789;28;20391;-71
2021/12/09 11:45:14;;;;;;;18.08;10.25;;;4.00;90.00;;;;;;5025555;28;20033;-72
2021/12/09 11:47:43;;;;;;;17.67;9.68;;;4.00;89.40;;;;;;5027277;28;20041;-70
2021/12/09 11:50:14;;;;;;;16.98;10.57;;;4.00;89.30;;;;;;5023406;28;20040;-71
2021/12/09 11:52:43;;;;;;;22.35;11.13;;;4.10;89.40;;;;;;5020677;28;20418;-71
2021/12/09 11:55:15;;;;;;;18.80;9.80;;;4.10;89.40;;;;;;5030687;28;20104;-71
2021/12/09 11:57:46;;;;;;;15.35;9.50;;;4.10;89.40;;;;;;5023467;28;20021;-70
2021/12/09 12:12:41;;;;;;;17.92;10.10;;;4.20;89.50;;;;;;5031103;28;20099;-72
2021/12/09 12:15:28;;;;;;;15.57;9.70;;;4.20;89.40;;;;;;5024215;28;20121;-72
2021/12/09 12:29:59;;;;;;;21.70;11.70;;;4.40;89.10;;;;;;5029172;28;20041;-72
2021/12/09 12:37:55;;;;;;;16.55;10.00;;;4.50;89.20;;;;;;5024498;28;20078;-72
2021/12/09 12:40:34;;;;;;;18.33;10.88;;;4.60;89.10;;;;;;5026140;28;20129;-72
2021/12/09 12:43:11;;;;;;;17.27;9.70;;;4.60;89.10;;;;;;5041056;28;20041;-71
2021/12/09 12:51:49;;;;;;;12.45;9.00;;;4.60;89.00;;;;;;5006500;28;20033;-72
2021/12/09 12:54:20;;;;;;;14.43;9.73;;;4.60;89.60;;;;;;5027124;28;20540;-72
2021/12/09 12:56:54;;;;;;;11.30;8.88;;;4.60;89.00;;;;;;5025334;28;20030;-72
2021/12/09 12:59:29;;;;;;;14.43;9.60;;;4.60;89.10;;;;;;5031085;28;20403;-72
2021/12/09 13:02:09;;;;;;;13.65;9.43;;;4.60;89.10;;;;;;5028198;28;20391;-69
2021/12/09 13:05:16;;;;;;;14.15;9.63;;;4.60;89.10;;;;;;5023270;28;20036;-69
2021/12/09 13:13:13;;;;;;;13.82;9.25;;;4.60;88.90;;;;;;5028538;28;20044;-69
2021/12/09 13:16:01;;;;;;;18.40;9.57;;;4.70;89.50;;;;;;5036611;28;20021;-70
2021/12/09 13:18:57;;;;;;;12.60;9.95;;;4.70;88.90;;;;;;5021847;28;20034;-70
2021/12/09 13:21:48;;;;;;;10.13;8.65;;;4.70;88.80;;;;;;5025944;28;20041;-69
2021/12/09 13:24:30;;;;;;;13.02;9.70;;;4.70;88.70;;;;;;5026229;28;20025;-69
2021/12/09 13:32:47;;;;;;;12.82;9.52;;;4.80;88.70;;;;;;5017553;28;20030;-69
2021/12/09 13:35:19;;;;;;;14.00;9.63;;;4.80;88.60;;;;;;5009313;28;20062;-70
2021/12/09 13:49:43;;;;;;;11.93;9.50;;;4.80;88.50;;;;;;5028670;28;20444;-69
2021/12/09 13:55:14;;;;;;;12.90;10.27;;;4.90;88.50;;;;;;5023037;28;20064;-70
2021/12/09 13:57:47;;;;;;;11.68;9.55;;;4.90;88.50;;;;;;5018004;28;20100;-69
2021/12/09 14:00:25;;;;;;;14.40;10.32;;;4.90;88.50;;;;;;5024262;28;20037;-70
2021/12/09 14:02:53;;;;;;;13.98;9.57;;;4.90;88.50;;;;;;5022101;28;20034;-70
2021/12/09 14:05:25;;;;;;;12.45;9.18;;;4.90;88.40;;;;;;5018227;28;20034;-70